createdAt,value
2016-05-21T00:00:58.326Z,22.41
2016-05-21T00:01:58.297Z,22.39
2016-05-21T00:02:58.300Z,22.38
2016-05-21T00:03:58.115Z,22.33
2016-05-21T00:04:58.258Z,22.35
2016-05-21T00:05:58.089Z,22.28
2016-05-21T00:06:58.232Z,22.41
2016-05-21T00:07:58.205Z,22.36
2016-05-21T00:08:58.050Z,22.2
2016-05-21T00:09:58.178Z,22.23
2016-05-21T00:10:58.040Z,22.25
2016-05-21T00:11:58.180Z,22.3
2016-05-21T00:12:58.152Z,22.28
2016-05-21T00:13:58.170Z,22.22
2016-05-21T00:14:58.172Z,22.14
2016-05-21T00:15:58.176Z,22.17
2016-05-21T00:16:58.155Z,22.26
2016-05-21T00:17:58.163Z,22.41
2016-05-21T00:18:58.157Z,22.44
2016-05-21T00:19:58.165Z,22.35
2016-05-21T00:20:58.141Z,22.45
2016-05-21T00:21:58.132Z,22.5
2016-05-21T00:22:58.122Z,22.69
2016-05-21T00:23:58.111Z,22.66
2016-05-21T00:24:57.929Z,22.66
2016-05-21T00:25:58.433Z,22.6
2016-05-21T00:26:57.906Z,22.69
2016-05-21T00:27:58.050Z,22.73
2016-05-21T00:28:58.038Z,22.68
2016-05-21T00:29:58.010Z,22.69
2016-05-21T00:30:58.013Z,22.63
2016-05-21T00:31:57.985Z,22.59
2016-05-21T00:32:57.973Z,22.63
2016-05-21T00:33:57.818Z,22.57
2016-05-21T00:34:57.946Z,22.57
2016-05-21T00:35:57.949Z,22.7
2016-05-21T00:36:57.936Z,22.6
2016-05-21T00:37:57.908Z,22.66
2016-05-21T00:38:57.895Z,22.5
2016-05-21T00:39:57.881Z,22.48
2016-05-21T00:40:57.728Z,22.47
2016-05-21T00:41:57.840Z,22.43
2016-05-21T00:42:57.827Z,22.5
2016-05-21T00:43:57.814Z,22.54
2016-05-21T00:44:57.816Z,22.65
2016-05-21T00:45:57.789Z,22.65
2016-05-21T00:46:57.776Z,22.6
2016-05-21T00:47:57.778Z,22.6
2016-05-21T00:48:57.594Z,22.55
2016-05-21T00:49:57.736Z,22.57
2016-05-21T00:50:57.724Z,22.54
2016-05-21T00:51:57.711Z,22.54
2016-05-21T00:52:57.541Z,22.43
2016-05-21T00:53:57.685Z,22.47
2016-05-21T00:54:57.671Z,22.45
2016-05-21T00:55:57.659Z,22.45
2016-05-21T00:56:57.630Z,22.3
2016-05-21T00:57:57.617Z,22.25
2016-05-21T00:58:57.604Z,22.36
2016-05-21T00:59:57.592Z,22.29
2016-05-21T01:00:57.579Z,22.35
2016-05-21T01:01:57.566Z,22.38
2016-05-21T01:02:57.553Z,22.2
2016-05-21T01:03:57.524Z,21.93
2016-05-21T01:04:57.356Z,21.62
2016-05-21T01:05:57.514Z,21.8
2016-05-21T01:06:57.501Z,21.83
2016-05-21T01:07:57.332Z,21.88
2016-05-21T01:08:57.475Z,21.79
2016-05-21T01:09:57.478Z,21.93
2016-05-21T01:10:57.292Z,21.98
2016-05-21T01:11:57.436Z,21.99
2016-05-21T01:12:57.408Z,21.98
2016-05-21T01:13:57.238Z,21.88
2016-05-21T01:14:57.383Z,21.76
2016-05-21T01:15:57.369Z,21.77
2016-05-21T01:16:57.356Z,21.7
2016-05-21T01:17:57.328Z,21.66
2016-05-21T01:18:57.314Z,21.64
2016-05-21T01:19:57.317Z,21.54
2016-05-21T01:20:57.133Z,21.67
2016-05-21T01:21:57.276Z,21.73
2016-05-21T01:22:57.263Z,21.61
2016-05-21T01:23:57.250Z,21.67
2016-05-21T01:24:57.080Z,21.58
2016-05-21T01:25:57.224Z,21.35
2016-05-21T01:26:57.195Z,21.37
2016-05-21T01:27:57.198Z,21.24
2016-05-21T01:28:57.029Z,21.2
2016-05-21T01:29:57.001Z,21.45
2016-05-21T01:30:57.160Z,21.37
2016-05-21T01:31:57.115Z,21.43
2016-05-21T01:32:57.118Z,21.39
2016-05-21T01:33:57.090Z,21.5
2016-05-21T01:34:57.076Z,21.48
2016-05-21T01:35:57.064Z,21.42
2016-05-21T01:36:57.067Z,21.37
2016-05-21T01:37:56.881Z,21.24
2016-05-21T01:38:57.040Z,21.22
2016-05-21T01:39:57.012Z,21.2
2016-05-21T01:40:57.295Z,21.09
2016-05-21T01:41:56.970Z,21.14
2016-05-21T01:42:56.661Z,21.14
2016-05-21T01:43:56.961Z,21.2
2016-05-21T01:44:56.948Z,21.29
2016-05-21T01:45:56.919Z,21.27
2016-05-21T01:46:56.906Z,21.3
2016-05-21T01:47:56.892Z,21.29
2016-05-21T01:48:56.864Z,21.29
2016-05-21T01:49:56.883Z,21.27
2016-05-21T01:50:56.854Z,21.22
2016-05-21T01:51:56.825Z,21.2
2016-05-21T01:52:56.827Z,21.11
2016-05-21T01:53:56.799Z,21.09
2016-05-21T01:54:56.630Z,21.14
2016-05-21T01:55:56.774Z,21.18
2016-05-21T01:56:56.761Z,21.24
2016-05-21T01:57:56.748Z,21.25
2016-05-21T01:58:56.751Z,21.21
2016-05-21T01:59:56.722Z,21.27
2016-05-21T02:00:56.724Z,21.27
2016-05-21T02:01:56.680Z,21.18
2016-05-21T02:02:56.667Z,21.17
2016-05-21T02:03:56.670Z,21.11
2016-05-21T02:04:56.642Z,20.99
2016-05-21T02:05:56.628Z,21.09
2016-05-21T02:06:56.615Z,21.06
2016-05-21T02:07:56.587Z,21.27
2016-05-21T02:08:56.573Z,21.21
2016-05-21T02:09:56.561Z,21.29
2016-05-21T02:10:56.564Z,21.4
2016-05-21T02:11:56.551Z,21.24
2016-05-21T02:12:56.539Z,21.18
2016-05-21T02:13:56.509Z,21.18
2016-05-21T02:14:56.497Z,21.2
2016-05-21T02:15:56.328Z,21.17
2016-05-21T02:16:56.455Z,21.15
2016-05-21T02:17:56.442Z,21.07
2016-05-21T02:18:56.413Z,21.12
2016-05-21T02:19:56.260Z,21.14
2016-05-21T02:20:56.403Z,21.15
2016-05-21T02:21:56.375Z,21.14
2016-05-21T02:22:56.377Z,21.17
2016-05-21T02:23:56.364Z,21.14
2016-05-21T02:24:56.336Z,21.06
2016-05-21T02:25:56.058Z,21.11
2016-05-21T02:26:56.716Z,21.15
2016-05-21T02:27:56.312Z,21.07
2016-05-21T02:28:56.285Z,21.15
2016-05-21T02:29:56.271Z,21.25
2016-05-21T02:30:56.243Z,21.42
2016-05-21T02:31:56.230Z,21.36
2016-05-21T02:32:56.060Z,21.43
2016-05-21T02:33:56.032Z,21.25
2016-05-21T02:34:56.206Z,21.25
2016-05-21T02:35:56.194Z,21.24
2016-05-21T02:36:55.992Z,21.24
2016-05-21T02:37:55.996Z,21.32
2016-05-21T02:38:56.140Z,21.4
2016-05-21T02:39:56.111Z,21.51
2016-05-21T02:40:56.270Z,21.46
2016-05-21T02:41:56.084Z,21.57
2016-05-21T02:42:56.072Z,21.64
2016-05-21T02:43:55.887Z,21.52
2016-05-21T02:44:56.045Z,21.51
2016-05-21T02:45:56.033Z,21.58
2016-05-21T02:46:56.019Z,21.51
2016-05-21T02:47:55.835Z,21.5
2016-05-21T02:48:55.978Z,21.6
2016-05-21T02:49:55.966Z,21.46
2016-05-21T02:50:55.797Z,21.32
2016-05-21T02:51:55.971Z,21.4
2016-05-21T02:52:55.958Z,21.4
2016-05-21T02:53:55.914Z,21.4
2016-05-21T02:54:56.213Z,21.42
2016-05-21T02:55:55.904Z,21.46
2016-05-21T02:56:56.016Z,21.57
2016-05-21T02:57:55.830Z,21.55
2016-05-21T02:58:55.833Z,21.69
2016-05-21T02:59:55.805Z,21.66
2016-05-21T03:00:55.793Z,21.67
2016-05-21T03:01:55.638Z,21.75
2016-05-21T03:02:55.765Z,21.7
2016-05-21T03:03:55.754Z,21.72
2016-05-21T03:04:55.740Z,21.66
2016-05-21T03:05:55.727Z,21.66
2016-05-21T03:06:55.714Z,21.51
2016-05-21T03:07:55.529Z,21.52
2016-05-21T03:08:55.517Z,21.6
2016-05-21T03:09:55.660Z,21.48
2016-05-21T03:10:55.506Z,21.57
2016-05-21T03:11:56.243Z,21.67
2016-05-21T03:12:55.606Z,21.69
2016-05-21T03:13:55.608Z,21.66
2016-05-21T03:14:55.267Z,21.52
2016-05-21T03:15:55.567Z,21.64
2016-05-21T03:16:55.553Z,21.67
2016-05-21T03:17:55.384Z,21.62
2016-05-21T03:18:55.528Z,21.73
2016-05-21T03:19:55.514Z,21.7
2016-05-21T03:20:55.362Z,21.75
2016-05-21T03:21:55.333Z,21.89
2016-05-21T03:22:55.320Z,21.76
2016-05-21T03:23:55.464Z,21.75
2016-05-21T03:24:55.450Z,21.69
2016-05-21T03:25:55.438Z,21.69
2016-05-21T03:26:55.424Z,21.64
2016-05-21T03:27:55.256Z,21.57
2016-05-21T03:28:55.383Z,21.57
2016-05-21T03:29:55.198Z,21.61
2016-05-21T03:30:55.341Z,21.61
2016-05-21T03:31:55.344Z,21.52
2016-05-21T03:32:55.159Z,21.48
2016-05-21T03:33:55.302Z,21.58
2016-05-21T03:34:55.290Z,21.61
2016-05-21T03:35:55.293Z,21.48
2016-05-21T03:36:55.279Z,21.33
2016-05-21T03:37:55.251Z,21.51
2016-05-21T03:38:55.238Z,21.51
2016-05-21T03:39:55.068Z,21.48
2016-05-21T03:40:55.040Z,21.35
2016-05-21T03:41:55.043Z,21.39
2016-05-21T03:42:55.170Z,21.39
2016-05-21T03:43:55.142Z,21.39
2016-05-21T03:44:55.161Z,21.45
2016-05-21T03:45:55.116Z,21.51
2016-05-21T03:46:54.947Z,21.4
2016-05-21T03:47:54.934Z,21.39
2016-05-21T03:48:55.078Z,21.51
2016-05-21T03:49:55.064Z,21.54
2016-05-21T03:50:55.052Z,21.48
2016-05-21T03:51:54.898Z,21.42
2016-05-21T03:52:55.025Z,21.6
2016-05-21T03:53:54.856Z,21.5
2016-05-21T03:54:54.984Z,21.46
2016-05-21T03:55:54.971Z,21.39
2016-05-21T03:56:54.833Z,21.45
2016-05-21T03:57:54.946Z,21.36
2016-05-21T03:58:54.777Z,21.37
2016-05-21T03:59:54.904Z,21.3
2016-05-21T04:00:54.891Z,21.48
2016-05-21T04:01:54.877Z,21.39
2016-05-21T04:02:54.865Z,21.2
2016-05-21T04:03:54.852Z,21.21
2016-05-21T04:04:54.840Z,20.95
2016-05-21T04:05:54.810Z,20.93
2016-05-21T04:06:54.813Z,20.66
2016-05-21T04:07:54.801Z,20.51
2016-05-21T04:08:54.803Z,20.36
2016-05-21T04:09:54.774Z,20.25
2016-05-21T04:10:54.856Z,20.39
2016-05-21T04:11:54.764Z,20.25
2016-05-21T04:12:54.720Z,20.18
2016-05-21T04:13:54.707Z,20.04
2016-05-21T04:14:54.695Z,20.18
2016-05-21T04:15:54.666Z,20.02
2016-05-21T04:16:54.356Z,19.89
2016-05-21T04:17:54.640Z,19.86
2016-05-21T04:18:54.314Z,19.62
2016-05-21T04:19:54.614Z,19.77
2016-05-21T04:20:54.586Z,19.67
2016-05-21T04:21:54.573Z,19.45
2016-05-21T04:22:54.559Z,19.33
2016-05-21T04:23:54.547Z,19.4
2016-05-21T04:24:54.549Z,19.33
2016-05-21T04:25:54.584Z,19.18
2016-05-21T04:26:54.476Z,19.27
2016-05-21T04:27:54.494Z,19.27
2016-05-21T04:28:54.325Z,19.09
2016-05-21T04:29:54.313Z,19.15
2016-05-21T04:30:54.441Z,19.14
2016-05-21T04:31:54.255Z,19.3
2016-05-21T04:32:54.415Z,19.16
2016-05-21T04:33:54.385Z,19.21
2016-05-21T04:34:54.388Z,19.21
2016-05-21T04:35:54.376Z,19.18
2016-05-21T04:36:54.346Z,19.14
2016-05-21T04:37:54.319Z,19.09
2016-05-21T04:38:54.306Z,18.95
2016-05-21T04:39:54.152Z,18.99
2016-05-21T04:40:54.280Z,18.83
2016-05-21T04:41:54.267Z,18.74
2016-05-21T04:42:54.270Z,18.71
2016-05-21T04:43:54.225Z,18.84
2016-05-21T04:44:54.228Z,18.86
2016-05-21T04:45:54.200Z,18.74
2016-05-21T04:46:54.171Z,18.59
2016-05-21T04:47:54.173Z,18.63
2016-05-21T04:48:54.145Z,18.53
2016-05-21T04:49:54.132Z,18.43
2016-05-21T04:50:53.964Z,18.6
2016-05-21T04:51:54.106Z,18.71
2016-05-21T04:52:54.094Z,18.49
2016-05-21T04:53:54.064Z,18.4
2016-05-21T04:54:54.067Z,18.49
2016-05-21T04:55:54.055Z,18.55
2016-05-21T04:56:54.042Z,18.45
2016-05-21T04:57:54.013Z,18.35
2016-05-21T04:58:53.999Z,18.28
2016-05-21T04:59:53.956Z,18.38
2016-05-21T05:00:53.974Z,18.31
2016-05-21T05:01:53.930Z,18.18
2016-05-21T05:02:53.776Z,18.31
2016-05-21T05:03:53.904Z,18.19
2016-05-21T05:04:53.891Z,17.8
2016-05-21T05:05:53.879Z,17.79
2016-05-21T05:06:53.865Z,17.94
2016-05-21T05:07:53.852Z,17.83
2016-05-21T05:08:53.823Z,18.03
2016-05-21T05:09:53.827Z,17.67
2016-05-21T05:10:53.642Z,17.67
2016-05-21T05:11:54.363Z,17.85
2016-05-21T05:12:53.601Z,17.78
2016-05-21T05:13:53.759Z,18
2016-05-21T05:14:53.746Z,18.05
2016-05-21T05:15:53.718Z,18.07
2016-05-21T05:16:53.705Z,18.16
2016-05-21T05:17:53.676Z,18.15
2016-05-21T05:18:53.664Z,18.16
2016-05-21T05:19:53.650Z,18.15
2016-05-21T05:20:53.637Z,18.1
2016-05-21T05:21:53.625Z,17.83
2016-05-21T05:22:53.611Z,17.72
2016-05-21T05:23:53.583Z,17.67
2016-05-21T05:24:53.570Z,17.74
2016-05-21T05:25:53.557Z,17.74
2016-05-21T05:26:53.403Z,17.78
2016-05-21T05:27:53.516Z,17.49
2016-05-21T05:28:53.486Z,17.49
2016-05-21T05:29:53.475Z,17.38
2016-05-21T05:30:53.461Z,17.49
2016-05-21T05:31:53.291Z,17.63
2016-05-21T05:32:53.435Z,17.83
2016-05-21T05:33:53.266Z,17.68
2016-05-21T05:34:53.394Z,17.49
2016-05-21T05:35:53.380Z,17.64
2016-05-21T05:36:53.369Z,17.65
2016-05-21T05:37:53.198Z,17.78
2016-05-21T05:38:53.185Z,17.68
2016-05-21T05:39:53.329Z,17.82
2016-05-21T05:40:53.144Z,17.83
2016-05-21T05:41:53.881Z,17.72
2016-05-21T05:42:53.274Z,17.68
2016-05-21T05:43:53.090Z,17.72
2016-05-21T05:44:53.249Z,17.67
2016-05-21T05:45:53.236Z,17.6
2016-05-21T05:46:53.192Z,17.44
2016-05-21T05:47:53.178Z,17.48
2016-05-21T05:48:53.165Z,17.67
2016-05-21T05:49:53.153Z,17.44
2016-05-21T05:50:53.125Z,17.6
2016-05-21T05:51:53.111Z,17.83
2016-05-21T05:52:52.942Z,17.8
2016-05-21T05:53:53.086Z,17.67
2016-05-21T05:54:52.916Z,17.59
2016-05-21T05:55:52.903Z,17.52
2016-05-21T05:56:52.891Z,17.54
2016-05-21T05:57:53.019Z,17.51
2016-05-21T05:58:53.021Z,17.49
2016-05-21T05:59:52.992Z,17.51
2016-05-21T06:00:52.947Z,17.57
2016-05-21T06:01:52.950Z,17.79
2016-05-21T06:02:52.922Z,17.87
2016-05-21T06:03:52.925Z,17.98
2016-05-21T06:04:52.756Z,17.87
2016-05-21T06:05:52.571Z,17.86
2016-05-21T06:06:52.871Z,17.87
2016-05-21T06:07:52.841Z,17.89
2016-05-21T06:08:52.829Z,17.87
2016-05-21T06:09:52.504Z,17.86
2016-05-21T06:10:52.804Z,18.05
2016-05-21T06:11:52.806Z,18.1
2016-05-21T06:12:52.762Z,18.05
2016-05-21T06:13:52.749Z,18.01
2016-05-21T06:14:52.720Z,18.05
2016-05-21T06:15:52.567Z,18.01
2016-05-21T06:16:52.710Z,17.9
2016-05-21T06:17:52.540Z,18
2016-05-21T06:18:52.668Z,18.03
2016-05-21T06:19:52.656Z,18.13
2016-05-21T06:20:52.626Z,18.11
2016-05-21T06:21:52.614Z,18.18
2016-05-21T06:22:52.586Z,18.38
2016-05-21T06:23:52.432Z,18.41
2016-05-21T06:24:52.559Z,18.47
2016-05-21T06:25:52.562Z,18.35
2016-05-21T06:26:52.378Z,18.35
2016-05-21T06:27:52.505Z,18.31
2016-05-21T06:28:52.508Z,18.26
2016-05-21T06:29:52.480Z,18.34
2016-05-21T06:30:52.466Z,18.38
2016-05-21T06:31:52.438Z,18.31
2016-05-21T06:32:52.440Z,18.22
2016-05-21T06:33:52.427Z,18.35
2016-05-21T06:34:52.399Z,18.37
2016-05-21T06:35:52.386Z,18.2
2016-05-21T06:36:52.374Z,18.2
2016-05-21T06:37:52.344Z,18.25
2016-05-21T06:38:52.347Z,18.34
2016-05-21T06:39:52.163Z,18.43
2016-05-21T06:40:52.306Z,18.37
2016-05-21T06:41:52.167Z,18.31
2016-05-21T06:42:52.265Z,18.33
2016-05-21T06:43:52.110Z,18.43
2016-05-21T06:44:52.238Z,18.45
2016-05-21T06:45:52.209Z,18.58
2016-05-21T06:46:52.196Z,18.41
2016-05-21T06:47:52.028Z,18.5
2016-05-21T06:48:52.156Z,18.55
2016-05-21T06:49:52.174Z,18.52
2016-05-21T06:50:52.145Z,18.52
2016-05-21T06:51:52.117Z,18.6
2016-05-21T06:52:52.119Z,18.5
2016-05-21T06:53:52.106Z,18.53
2016-05-21T06:54:51.765Z,18.49
2016-05-21T06:55:52.065Z,18.65
2016-05-21T06:56:52.645Z,18.78
2016-05-21T06:57:52.023Z,18.92
2016-05-21T06:58:52.011Z,19
2016-05-21T06:59:51.997Z,19.04
2016-05-21T07:00:51.969Z,19.18
2016-05-21T07:01:51.800Z,19.21
2016-05-21T07:02:51.943Z,19.14
2016-05-21T07:03:51.774Z,19.24
2016-05-21T07:04:51.933Z,19.3
2016-05-21T07:05:51.889Z,19.29
2016-05-21T07:06:51.875Z,19.4
2016-05-21T07:07:51.691Z,19.33
2016-05-21T07:08:51.850Z,19.27
2016-05-21T07:09:51.852Z,19.3
2016-05-21T07:10:51.823Z,19.37
2016-05-21T07:11:51.921Z,19.49
2016-05-21T07:12:51.798Z,19.33
2016-05-21T07:13:51.769Z,19.47
2016-05-21T07:14:51.757Z,19.49
2016-05-21T07:15:51.728Z,19.67
2016-05-21T07:16:51.715Z,19.67
2016-05-21T07:17:51.702Z,19.77
2016-05-21T07:18:51.690Z,19.66
2016-05-21T07:19:51.520Z,19.69
2016-05-21T07:20:51.648Z,19.7
2016-05-21T07:21:51.479Z,19.79
2016-05-21T07:22:51.465Z,19.79
2016-05-21T07:23:51.593Z,19.81
2016-05-21T07:24:51.595Z,19.96
2016-05-21T07:25:51.568Z,19.79
2016-05-21T07:26:51.633Z,19.66
2016-05-21T07:27:51.369Z,19.73
2016-05-21T07:28:51.529Z,19.74
2016-05-21T07:29:51.531Z,19.76
2016-05-21T07:30:51.487Z,19.92
2016-05-21T07:31:51.475Z,19.74
2016-05-21T07:32:51.461Z,19.94
2016-05-21T07:33:51.448Z,19.82
2016-05-21T07:34:51.450Z,20
2016-05-21T07:35:51.407Z,19.99
2016-05-21T07:36:51.410Z,20
2016-05-21T07:37:51.380Z,19.95
2016-05-21T07:38:51.383Z,20
2016-05-21T07:39:51.339Z,20
2016-05-21T07:40:51.358Z,19.95
2016-05-21T07:41:51.563Z,19.88
2016-05-21T07:42:51.144Z,19.76
2016-05-21T07:43:51.272Z,20.03
2016-05-21T07:44:51.274Z,20.1
2016-05-21T07:45:51.262Z,19.96
2016-05-21T07:46:51.249Z,19.95
2016-05-21T07:47:51.221Z,19.85
2016-05-21T07:48:51.207Z,19.86
2016-05-21T07:49:51.210Z,19.84
2016-05-21T07:50:51.182Z,19.82
2016-05-21T07:51:51.028Z,20.1
2016-05-21T07:52:51.155Z,20.11
2016-05-21T07:53:51.143Z,20.11
2016-05-21T07:54:51.129Z,20.07
2016-05-21T07:55:50.945Z,19.99
2016-05-21T07:56:51.229Z,19.88
2016-05-21T07:57:50.903Z,19.95
2016-05-21T07:58:50.906Z,20
2016-05-21T07:59:51.034Z,19.85
2016-05-21T08:00:51.037Z,19.89
2016-05-21T08:01:51.008Z,19.82
2016-05-21T08:02:50.839Z,19.66
2016-05-21T08:03:50.982Z,19.66
2016-05-21T08:04:50.969Z,19.92
2016-05-21T08:05:50.956Z,19.94
2016-05-21T08:06:50.928Z,19.89
2016-05-21T08:07:50.774Z,19.74
2016-05-21T08:08:50.902Z,19.71
2016-05-21T08:09:50.874Z,19.77
2016-05-21T08:10:50.704Z,19.55
2016-05-21T08:11:51.066Z,19.55
2016-05-21T08:12:50.850Z,19.67
2016-05-21T08:13:50.821Z,19.67
2016-05-21T08:14:50.809Z,19.52
2016-05-21T08:15:50.795Z,19.55
2016-05-21T08:16:50.799Z,19.64
2016-05-21T08:17:50.770Z,19.52
2016-05-21T08:18:50.741Z,19.54
2016-05-21T08:19:50.729Z,19.62
2016-05-21T08:20:50.699Z,19.76
2016-05-21T08:21:50.702Z,20
2016-05-21T08:22:50.690Z,19.89
2016-05-21T08:23:50.676Z,20
2016-05-21T08:24:50.679Z,20.11
2016-05-21T08:25:50.635Z,20.13
2016-05-21T08:26:50.669Z,20.28
2016-05-21T08:27:50.609Z,20.26
2016-05-21T08:28:50.581Z,20.1
2016-05-21T08:29:50.584Z,20.29
2016-05-21T08:30:50.570Z,20.29
2016-05-21T08:31:50.542Z,20.25
2016-05-21T08:32:50.544Z,20.26
2016-05-21T08:33:50.516Z,20.47
2016-05-21T08:34:50.347Z,20.55
2016-05-21T08:35:50.490Z,20.77
2016-05-21T08:36:50.462Z,20.87
2016-05-21T08:37:50.308Z,20.63
2016-05-21T08:38:50.280Z,20.66
2016-05-21T08:39:50.422Z,20.81
2016-05-21T08:40:50.253Z,20.84
2016-05-21T08:41:50.585Z,20.96
2016-05-21T08:42:50.368Z,20.9
2016-05-21T08:43:50.371Z,20.96
2016-05-21T08:44:50.343Z,21.05
2016-05-21T08:45:50.345Z,21.2
2016-05-21T08:46:50.316Z,21.06
2016-05-21T08:47:50.304Z,20.96
2016-05-21T08:48:50.135Z,21.06
2016-05-21T08:49:50.262Z,21.18
2016-05-21T08:50:50.265Z,21.27
2016-05-21T08:51:49.954Z,21.12
2016-05-21T08:52:50.239Z,21.29
2016-05-21T08:53:50.070Z,21.29
2016-05-21T08:54:50.198Z,21.4
2016-05-21T08:55:50.184Z,21.43
2016-05-21T08:56:49.890Z,21.48
2016-05-21T08:57:50.159Z,21.55
2016-05-21T08:58:50.146Z,21.62
2016-05-21T08:59:50.133Z,21.55
2016-05-21T09:00:50.104Z,21.61
2016-05-21T09:01:50.091Z,21.52
2016-05-21T09:02:50.079Z,21.61
2016-05-21T09:03:49.925Z,21.48
2016-05-21T09:04:50.052Z,21.37
2016-05-21T09:05:49.884Z,21.43
2016-05-21T09:06:50.027Z,21.52
2016-05-21T09:07:49.998Z,21.57
2016-05-21T09:08:49.986Z,21.61
2016-05-21T09:09:49.973Z,21.46
2016-05-21T09:10:49.959Z,21.5
2016-05-21T09:11:49.947Z,21.45
2016-05-21T09:12:49.933Z,21.2
2016-05-21T09:13:49.936Z,21.18
2016-05-21T09:14:49.939Z,21.32
2016-05-21T09:15:49.910Z,21.48
2016-05-21T09:16:49.882Z,21.4
2016-05-21T09:17:49.875Z,21.45
2016-05-21T09:18:49.899Z,21.64
2016-05-21T09:19:49.891Z,21.75
2016-05-21T09:20:49.915Z,21.83
2016-05-21T09:21:49.924Z,21.93
2016-05-21T09:22:49.917Z,21.93
2016-05-21T09:23:49.897Z,21.88
2016-05-21T09:24:49.892Z,21.99
2016-05-21T09:25:49.886Z,21.95
2016-05-21T09:26:49.787Z,22.1
2016-05-21T09:27:49.886Z,22.2
2016-05-21T09:28:49.860Z,22.14
2016-05-21T09:29:49.709Z,22
2016-05-21T09:30:49.855Z,21.95
2016-05-21T09:31:49.673Z,21.83
2016-05-21T09:32:49.490Z,21.72
2016-05-21T09:33:49.634Z,21.93
2016-05-21T09:34:49.795Z,21.89
2016-05-21T09:35:49.782Z,21.98
2016-05-21T09:36:49.771Z,22.11
2016-05-21T09:37:49.758Z,22.32
2016-05-21T09:38:49.746Z,22.32
2016-05-21T09:39:49.733Z,22.43
2016-05-21T09:40:49.736Z,22.26
2016-05-21T09:41:49.708Z,22.2
2016-05-21T09:42:49.711Z,21.76
2016-05-21T09:43:49.682Z,21.79
2016-05-21T09:44:49.512Z,21.77
2016-05-21T09:45:49.484Z,22.11
2016-05-21T09:46:49.487Z,22.33
2016-05-21T09:47:49.631Z,22.59
2016-05-21T09:48:49.446Z,22.62
2016-05-21T09:49:49.603Z,22.48
2016-05-21T09:50:49.592Z,22.48
2016-05-21T09:51:49.578Z,22.5
2016-05-21T09:52:49.550Z,22.44
2016-05-21T09:53:49.552Z,22.43
2016-05-21T09:54:49.383Z,22.43
2016-05-21T09:55:49.542Z,22.75
2016-05-21T09:56:49.357Z,22.75
2016-05-21T09:57:49.500Z,22.84
2016-05-21T09:58:49.488Z,22.73
2016-05-21T09:59:49.475Z,22.91
2016-05-21T10:00:49.446Z,22.93
2016-05-21T10:01:49.449Z,22.87
2016-05-21T10:02:49.436Z,22.78
2016-05-21T10:03:49.267Z,22.55
2016-05-21T10:04:49.254Z,22.22
2016-05-21T10:05:49.397Z,22.15
2016-05-21T10:06:49.385Z,22.43
2016-05-21T10:07:49.387Z,22.66
2016-05-21T10:08:49.359Z,22.83
2016-05-21T10:09:49.346Z,22.83
2016-05-21T10:10:49.192Z,23.15
2016-05-21T10:11:49.179Z,23.2
2016-05-21T10:12:49.323Z,23.13
2016-05-21T10:13:49.293Z,23.27
2016-05-21T10:14:49.156Z,23.47
2016-05-21T10:15:49.127Z,23.62
2016-05-21T10:16:49.271Z,23.54
2016-05-21T10:17:49.242Z,23.5
2016-05-21T10:18:49.088Z,23.41
2016-05-21T10:19:49.216Z,23.28
2016-05-21T10:20:49.220Z,23.32
2016-05-21T10:21:49.206Z,23.39
2016-05-21T10:22:49.209Z,23.47
2016-05-21T10:23:49.025Z,23.43
2016-05-21T10:24:49.167Z,23.39
2016-05-21T10:25:49.154Z,23.43
2016-05-21T10:26:49.391Z,23.46
2016-05-21T10:27:48.972Z,23.27
2016-05-21T10:28:49.116Z,23.32
2016-05-21T10:29:49.118Z,23.02
2016-05-21T10:30:49.105Z,23.43
2016-05-21T10:31:49.092Z,23.74
2016-05-21T10:32:49.080Z,23.65
2016-05-21T10:33:49.066Z,23.8
2016-05-21T10:34:49.054Z,23.88
2016-05-21T10:35:49.041Z,23.81
2016-05-21T10:36:49.044Z,23.95
2016-05-21T10:37:48.999Z,23.74
2016-05-21T10:38:48.986Z,23.27
2016-05-21T10:39:48.989Z,23.24
2016-05-21T10:40:48.991Z,23.54
2016-05-21T10:41:48.993Z,23.58
2016-05-21T10:42:48.965Z,23.83
2016-05-21T10:43:48.953Z,24.08
2016-05-21T10:44:48.940Z,24.2
2016-05-21T10:45:48.926Z,24.23
2016-05-21T10:46:48.914Z,24.2
2016-05-21T10:47:48.901Z,23.81
2016-05-21T10:48:48.732Z,23.91
2016-05-21T10:49:48.719Z,23.99
2016-05-21T10:50:48.878Z,23.81
2016-05-21T10:51:48.865Z,23.84
2016-05-21T10:52:48.868Z,23.84
2016-05-21T10:53:48.823Z,23.96
2016-05-21T10:54:48.826Z,24.21
2016-05-21T10:55:48.829Z,24.5
2016-05-21T10:56:49.285Z,24.66
2016-05-21T10:57:48.786Z,24.54
2016-05-21T10:58:48.619Z,24.65
2016-05-21T10:59:48.777Z,24.38
2016-05-21T11:00:48.764Z,24.47
2016-05-21T11:01:48.751Z,24.2
2016-05-21T11:02:48.739Z,24.18
2016-05-21T11:03:48.725Z,24.48
2016-05-21T11:04:48.555Z,24.36
2016-05-21T11:05:48.558Z,24.53
2016-05-21T11:06:48.686Z,24.53
2016-05-21T11:07:48.533Z,24.26
2016-05-21T11:08:48.676Z,24.3
2016-05-21T11:09:48.663Z,24.38
2016-05-21T11:10:48.635Z,24.53
2016-05-21T11:11:48.857Z,24.3
2016-05-21T11:12:48.468Z,24.11
2016-05-21T11:13:48.612Z,24.24
2016-05-21T11:14:48.615Z,24.36
2016-05-21T11:15:48.601Z,24.45
2016-05-21T11:16:48.604Z,24.29
2016-05-21T11:17:48.576Z,24.02
2016-05-21T11:18:48.562Z,24.1
2016-05-21T11:19:48.393Z,24.3
2016-05-21T11:20:48.381Z,24.53
2016-05-21T11:21:48.383Z,25.03
2016-05-21T11:22:48.511Z,25.21
2016-05-21T11:23:48.514Z,24.95
2016-05-21T11:24:48.484Z,24.58
2016-05-21T11:25:48.487Z,24.23
2016-05-21T11:26:48.708Z,24.29
2016-05-21T11:27:48.306Z,24.33
2016-05-21T11:28:48.464Z,24.53
2016-05-21T11:29:48.452Z,24.65
2016-05-21T11:30:48.438Z,24.81
2016-05-21T11:31:48.441Z,24.74
2016-05-21T11:32:48.428Z,24.6
2016-05-21T11:33:48.416Z,24.69
2016-05-21T11:34:48.402Z,24.63
2016-05-21T11:35:48.389Z,24.65
2016-05-21T11:36:48.392Z,24.85
2016-05-21T11:37:48.380Z,24.91
2016-05-21T11:38:48.366Z,25.43
2016-05-21T11:39:48.354Z,25.83
2016-05-21T11:40:48.184Z,25.58
2016-05-21T11:41:48.780Z,25.63
2016-05-21T11:42:48.329Z,25.68
2016-05-21T11:43:48.333Z,25.43
2016-05-21T11:44:48.304Z,25.31
2016-05-21T11:45:48.307Z,25.44
2016-05-21T11:46:48.310Z,25.44
2016-05-21T11:47:48.282Z,25.63
2016-05-21T11:48:48.268Z,25.77
2016-05-21T11:49:48.271Z,25.81
2016-05-21T11:50:48.258Z,25.98
2016-05-21T11:51:48.245Z,25.66
2016-05-21T11:52:48.107Z,25.5
2016-05-21T11:53:48.250Z,25.53
2016-05-21T11:54:48.237Z,25.99
2016-05-21T11:55:48.240Z,25.72
2016-05-21T11:56:48.071Z,25.9
2016-05-21T11:57:48.198Z,26.15
2016-05-21T11:58:48.217Z,26.33
2016-05-21T11:59:48.188Z,25.83
2016-05-21T12:00:48.206Z,25.96
2016-05-21T12:01:48.193Z,25.93
2016-05-21T12:02:48.166Z,26.28
2016-05-21T12:03:48.169Z,26.7
2016-05-21T12:04:48.155Z,26.63
2016-05-21T12:05:48.157Z,26.41
2016-05-21T12:06:48.144Z,26.22
2016-05-21T12:07:48.132Z,25.95
2016-05-21T12:08:48.119Z,26
2016-05-21T12:09:48.138Z,25.95
2016-05-21T12:10:48.124Z,26.34
2016-05-21T12:11:47.955Z,26.73
2016-05-21T12:12:48.098Z,26.59
2016-05-21T12:13:48.085Z,26.15
2016-05-21T12:14:48.088Z,26.47
2016-05-21T12:15:48.076Z,26.7
2016-05-21T12:16:48.093Z,27.36
2016-05-21T12:17:48.065Z,28.07
2016-05-21T12:18:48.068Z,28.22
2016-05-21T12:19:48.054Z,28.12
2016-05-21T12:20:48.042Z,27.82
2016-05-21T12:21:48.029Z,27.92
2016-05-21T12:22:48.015Z,27.87
2016-05-21T12:23:48.034Z,27.92
2016-05-21T12:24:48.006Z,28.04
2016-05-21T12:25:48.008Z,27.68
2016-05-21T12:26:48.448Z,27.26
2016-05-21T12:27:48.014Z,27.25
2016-05-21T12:28:48.000Z,27.92
2016-05-21T12:29:48.003Z,28.42
2016-05-21T12:30:47.991Z,28.76
2016-05-21T12:31:47.994Z,29.14
2016-05-21T12:32:47.825Z,29.23
2016-05-21T12:33:47.967Z,29.16
2016-05-21T12:34:47.814Z,28.96
2016-05-21T12:35:47.816Z,28.76
2016-05-21T12:36:47.975Z,29.26
2016-05-21T12:37:47.805Z,29.04
2016-05-21T12:38:47.966Z,28.47
2016-05-21T12:39:47.968Z,28.23
2016-05-21T12:40:47.798Z,27.77
2016-05-21T12:41:48.427Z,27.44
2016-05-21T12:42:47.944Z,27.6
2016-05-21T12:43:47.947Z,27.98
2016-05-21T12:44:47.935Z,28.41
2016-05-21T12:45:47.781Z,28.15
2016-05-21T12:46:47.940Z,27.73
2016-05-21T12:47:47.879Z,28.05
2016-05-21T12:48:47.773Z,28.7
2016-05-21T12:49:47.932Z,28.97
2016-05-21T12:50:47.920Z,28.54
2016-05-21T12:51:47.907Z,28.22
2016-05-21T12:52:47.925Z,28.22
2016-05-21T12:53:47.896Z,28.74
2016-05-21T12:54:47.883Z,28.69
2016-05-21T12:55:47.886Z,28.63
2016-05-21T12:56:48.357Z,28.56